Nearby METAR Reports

 

CYUL - Montreal/Dorval, Quebec, Canada
Distance from station: ENE 6km
Updated: 01/20/2022 20:00 EST
Clear
Clear
 Wind from WSW
Wind: WSW 17 km/h
Temperature: -19°C
Wind Chill: -28°C
Dew Point: -24°C
Humidity: 65%
Barometer: 1032.2 hPa
Clouds: Clear
Visibility: 24 km
2022/01/21 01:00 CYUL 210100Z 25009KT 15SM SKC M19/M24 A3048 RMK SLP328
CWVQ - Ste Anne De Bell, Quebec, Canada
Distance from station: WSW 10km
Updated: 01/20/2022 20:00 EST

 Wind from WSW
Wind: WSW 13 km/h
Temperature: -20°C
Wind Chill: -28°C
Dew Point: -24°C
Humidity: 71%
2022/01/21 01:00 CWVQ 210100Z AUTO 24007KT M20/M24 RMK AO1 SOG 23 2027 SLP330 T11971241
 
CWTA - Mc Tavish (aut), Quebec, Canada
Distance from station: ENE 18km
Updated: 01/20/2022 20:00 EST

 Wind from WSW
Wind: WSW 6 km/h
Temperature: -17°C
Dew Point: -22°C
Humidity: 65%
2022/01/21 01:00 CWTA 210100Z AUTO 24003KT M17/M22 RMK AO1 SOG 52 3027 SLP322 T11701220
CYMX - Montreal/Mirabel, Quebec, Canada
Distance from station: NW 29km
Updated: 01/20/2022 20:00 EST
Few Clouds
Few Clouds
 Wind from W
Wind: W 9 km/h
Temperature: -19°C
Wind Chill: -26°C
Dew Point: -24°C
Humidity: 65%
Barometer: 1031.5 hPa
Clouds: Few Clouds
Visibility: 40 km
Cloud details: Few Clouds 7620 m
2022/01/21 01:00 CYMX 210100Z 26005KT 25SM FEW250 M19/M24 A3046 RMK CI1 CI TR SLP327
 
CYHU - Saint Hubert Arp, Quebec, Canada
Distance from station: ENE 31km
Updated: 01/20/2022 20:00 EST
Mostly cloudy
Mostly cloudy
 Wind from W
Wind: W 19 km/h
Temperature: -16°C
Wind Chill: -26°C
Dew Point: -22°C
Humidity: 60%
Barometer: 1031.8 hPa
Clouds: Mostly cloudy
Visibility: 14 km
Cloud details: Few Clouds 732 m
Mostly cloudy 1036 m
2022/01/21 01:00 CYHU 210100Z AUTO 27010KT 9SM FEW024 BKN034 M16/M22 A3047 RMK SLP323
CWIT - St Clothilde (a, Quebec, Canada
Distance from station: SSE 33km
Updated: 01/20/2022 20:00 EST

 Wind from W
Wind: W 9 km/h
Temperature: -18°C
Wind Chill: -24°C
Dew Point: -24°C
Humidity: 60%
2022/01/21 01:00 CWIT 210100Z AUTO 26005KT M18/M24 RMK AO1 SOG 23 3026 SLP327 T11751237
 
CWIZ - L'acadie, Quebec, Canada
Distance from station: ESE 41km
Updated: 01/20/2022 20:00 EST

 Wind from W
Wind: W 11 km/h
Temperature: -19°C
Wind Chill: -26°C
Dew Point: -21°C
Humidity: 84%
2022/01/21 01:00 CWIZ 210100Z AUTO 26006KT M19/M21 RMK AO1 SOG 30 T11901211
CWHM - Varennes, Quebec, Canada
Distance from station: NE 45km
Updated: 10/25/2016 10:00 EDT
NOT Current

 Wind from W
Wind: W 19 km/h, Gust: 28 km/h
Temperature: 4°C
Wind Chill: 0°C
Dew Point: -2°C
Humidity: 65%
2016/10/25 14:00 CWHM 251400Z AUTO 28010G15KT 04/M02 RMK AO1 PK WND 28018/1302 T00391017
 
CWEW - L'assomption, Quebec, Canada
Distance from station: NE 50km
Updated: 01/20/2022 20:00 EST

 Wind from W
Wind: W 2 km/h
Temperature: -21°C
Dew Point: -24°C
Humidity: 77%
2022/01/21 01:00 CWEW 210100Z AUTO 26001KT M21/M24 RMK AO1 SOG 19 3031 SLP331 T12081237
CWBZ - St Anicet, Quebec, Canada
Distance from station: SW 52km
Updated: 01/20/2022 20:00 EST

 Wind from WSW
Wind: WSW 9 km/h
Temperature: -20°C
Wind Chill: -27°C
Dew Point: -25°C
Humidity: 65%
2022/01/21 01:00 CWBZ 210100Z AUTO 25005KT M20/M25 RMK AO1 SLP337 T12041249 52027
 
KFSO - Highgate, Vermont, USA
Distance from station: SE 79km
Updated: 01/20/2022 19:55 EST
Clear
Clear
 Wind from SSE
Wind: SSE 6 km/h
Temperature: -21°C
Dew Point: -24°C
Humidity: 77%
Barometer: 1032.2 hPa
Clouds: Clear
Visibility: 16 km
2022/01/21 00:55 KFSO 210055Z AUTO 16003KT 10SM CLR M21/M24 A3048 RMK AO2 T12101236
CMGB - Granby, Quebec, Canada
Distance from station: E 81km
Updated: 01/20/2022 20:00 EST

 Wind from SW
Wind: SW 6 km/h
Temperature: -19°C
Dew Point: -23°C
Humidity: 71%
2022/01/21 01:00 CMGB 210100Z AUTO 22003KT M19/M23 RMK AO1 SOG 29 2024 SLP323 T11891231
 
CWJT - St Jovite (autob, Quebec, Canada
Distance from station: NW 88km
Updated: 01/20/2022 20:00 EST

 Wind from calm
Wind: Calm
Temperature: -25°C
Dew Point: -28°C
Humidity: 76%
2022/01/21 01:00 CWJT 210100Z AUTO 00000KT M25/M28 RMK AO1 SLP337 T12541276 53023
CWFQ - Frelighsburg, Quebec, Canada
Distance from station: ESE 90km
Updated: 01/20/2022 20:00 EST

 Wind from WSW
Wind: WSW 4 km/h
Temperature: -18°C
Dew Point: -23°C
Humidity: 65%
2022/01/21 01:00 CWFQ 210100Z AUTO 24002KT M18/M23 RMK AO1 SOG 22 1025 SLP317 T11841230
 
KPBG - Plattsburgh Afb, New York, USA
Distance from station: SSE 93km
Updated: 01/20/2022 19:53 EST
Clear
Clear
 Wind from WNW
Wind: WNW 6 km/h
Temperature: -18°C
Dew Point: -21°C
Humidity: 78%
Barometer: 1031.8 hPa
Clouds: Clear
Visibility: 16 km
2022/01/21 00:53 KPBG 210053Z AUTO 30003KT 10SM CLR M18/M21 A3047 RMK AO2 SLP326 T11781211
KMSS - Massena, New York, USA
Distance from station: SW 100km
Updated: 01/20/2022 19:53 EST
Clear
Clear
 Wind from SW
Wind: SW 7 km/h
Temperature: -21°C
Wind Chill: -28°C
Dew Point: -26°C
Humidity: 64%
Barometer: 1033.9 hPa
Clouds: Clear
Visibility: 16 km
2022/01/21 00:53 KMSS 210053Z AUTO 23004KT 10SM CLR M21/M26 A3053 RMK AO2 SLP352 T12061261
 
CWBS - Lac St Pierre (a, Quebec, Canada
Distance from station: NE 106km
Updated: 01/20/2022 20:00 EST

 Wind from NNW
Wind: NNW 9 km/h
Temperature: -17°C
Wind Chill: -24°C
Dew Point: -22°C
Humidity: 65%
2022/01/21 01:00 CWBS 210100Z AUTO 33005KT M17/M22 RMK AO1 T11741224
KBTV - Burlington, Vermont, USA
Distance from station: SSE 121km
Updated: 01/20/2022 20:10 EST
Mostly cloudy
Mostly cloudy
 Wind from E
Wind: E 9 km/h
Temperature: -17°C
Wind Chill: -24°C
Dew Point: -22°C
Humidity: 65%
Barometer: 1031.8 hPa
Clouds: Mostly cloudy
Visibility: 16 km
Cloud details: Mostly cloudy 823 m
2022/01/21 01:10 KBTV 210110Z 10005KT 10SM BKN027 M17/M22 A3047 RMK AO2 T11671222 $
 
KSLK - Saranac Lake, New York, USA
Distance from station: SSW 121km
Updated: 01/20/2022 19:51 EST
Clear
Clear
 Wind from WSW
Wind: WSW 6 km/h
Temperature: -21°C
Dew Point: -24°C
Humidity: 77%
Barometer: 1026.4 hPa
Clouds: Clear
Visibility: 16 km
2022/01/21 00:51 KSLK 210051Z AUTO 24003KT 10SM CLR M21/M24 A3031 RMK AO2 SLP311 T12111239
CWNQ - Nicolet (autob), Quebec, Canada
Distance from station: NE 123km
Updated: 01/20/2022 20:00 EST

 Wind from NNE
Wind: NNE 2 km/h
Temperature: -22°C
Dew Point: -25°C
Humidity: 77%
2022/01/21 01:00 CWNQ 210100Z AUTO 03001KT M22/M25 RMK AO1 SLP319 T12241254 53028
 
KMWN - Mount Washington, New Hampshire, USA
Distance from station: SE 237km
Updated: 01/20/2022 19:57 EST

 Wind from WNW
Wind: WNW 48 km/h
Visibility: 160 km
2022/01/21 00:57 KMWN 210057Z 30026KT 100SM FEW/// FEW200 M21/M25 RMK TPS LWR FEW045
CYVR - Vancouver Intl A, British Columbia, Canada
Distance from station: NW 3676km
Updated: 01/20/2022 20:00 EST
Mostly cloudy
Mostly cloudy
 Wind from W
Wind: W 31 km/h
Temperature: 7°C
Wind Chill: 3°C
Dew Point: 6°C
Humidity: 93%
Barometer: 1024 hPa
Clouds: Mostly cloudy
Visibility: 48 km
Cloud details: Few Clouds 396 m
Few Clouds 1829 m
Few Clouds 2743 m
Few Clouds 3658 m
Mostly cloudy 6401 m
2022/01/21 01:00 CYVR 210100Z 27017KT 30SM FEW013 FEW060 FEW090 FEW120 BKN210 07/06 A3024 RMK CU1SC1AC1AC2CI5 CU TR SC TR AC TR SLP241